createdAt,value
2023-05-06T00:00:07.138Z,99117.53
2023-05-06T00:02:34.890Z,99120.50
2023-05-06T00:05:03.301Z,99117.25
2023-05-06T00:07:30.915Z,99122.28
2023-05-06T00:09:58.564Z,99115.72
2023-05-06T00:12:26.126Z,99110.56
2023-05-06T00:14:53.798Z,99099.75
2023-05-06T00:17:22.759Z,99107.94
2023-05-06T00:19:52.348Z,99108.72
2023-05-06T00:22:19.984Z,99106.16
2023-05-06T00:24:47.663Z,99101.47
2023-05-06T00:27:15.278Z,99097.50
2023-05-06T00:29:43.129Z,99097.50
2023-05-06T00:32:11.107Z,99099.13
2023-05-06T00:34:40.429Z,99104.88
2023-05-06T00:37:10.112Z,99103.59
2023-05-06T00:39:37.907Z,99096.06
2023-05-06T00:42:05.930Z,99099.03
2023-05-06T00:44:33.504Z,99096.47
2023-05-06T00:47:01.871Z,99096.56
2023-05-06T00:49:30.277Z,99096.22
2023-05-06T00:52:00.565Z,99095.25
2023-05-06T00:54:29.900Z,99099.38
2023-05-06T00:56:59.176Z,99094.47
2023-05-06T00:59:26.898Z,99093.63
2023-05-06T01:01:54.993Z,99092.25
2023-05-06T01:04:24.031Z,99086.09
2023-05-06T01:06:57.008Z,99086.19
2023-05-06T01:09:30.740Z,99076.09
2023-05-06T01:12:05.646Z,99079.59
2023-05-06T01:14:37.769Z,99083.25
2023-05-06T01:17:06.516Z,99079.28
2023-05-06T01:19:41.912Z,99079.38
2023-05-06T01:22:11.098Z,99084.81
2023-05-06T01:24:41.600Z,99088.88
2023-05-06T01:27:10.226Z,99083.97
2023-05-06T01:29:39.595Z,99092.91
2023-05-06T01:32:18.416Z,99090.91
2023-05-06T01:34:51.197Z,99097.19
2023-05-06T01:37:23.134Z,99089.78
2023-05-06T01:39:55.729Z,99092.66
2023-05-06T01:42:24.990Z,99087.84
2023-05-06T01:44:54.359Z,99100.03
2023-05-06T01:47:22.289Z,99101.13
2023-05-06T01:49:50.025Z,99099.72
2023-05-06T01:52:17.756Z,99097.69
2023-05-06T01:54:45.546Z,99097.63
2023-05-06T01:57:14.766Z,99094.44
2023-05-06T01:59:42.606Z,99088.44
2023-05-06T02:02:10.587Z,99093.88
2023-05-06T02:04:38.640Z,99101.81
2023-05-06T02:07:06.622Z,99104.66
2023-05-06T02:09:34.455Z,99113.59
2023-05-06T02:12:02.351Z,99114.22
2023-05-06T02:14:31.643Z,99110.31
2023-05-06T02:16:59.403Z,99109.63
2023-05-06T02:19:27.075Z,99104.50
2023-05-06T02:21:54.834Z,99108.00
2023-05-06T02:24:22.767Z,99104.25
2023-05-06T02:26:50.668Z,99099.69
2023-05-06T02:29:18.551Z,99105.44
2023-05-06T02:31:47.670Z,99101.88
2023-05-06T02:34:15.517Z,99104.59
2023-05-06T02:36:43.273Z,99104.28
2023-05-06T02:39:11.121Z,99107.94
2023-05-06T02:41:38.952Z,99097.59
2023-05-06T02:44:06.735Z,99094.41
2023-05-06T02:46:35.975Z,99092.78
2023-05-06T02:49:05.161Z,99100.25
2023-05-06T02:51:33.005Z,99092.69
2023-05-06T02:54:00.762Z,99100.88
2023-05-06T02:56:28.613Z,99095.97
2023-05-06T02:58:56.536Z,99088.13
2023-05-06T03:01:24.382Z,99097.91
2023-05-06T03:03:52.005Z,99084.47
2023-05-06T03:06:20.914Z,99095.97
2023-05-06T03:08:48.919Z,99090.13
2023-05-06T03:11:16.805Z,99087.56
2023-05-06T03:13:44.646Z,99091.00
2023-05-06T03:16:15.410Z,99093.41
2023-05-06T03:18:43.275Z,99083.31
2023-05-06T03:21:12.164Z,99086.75
2023-05-06T03:23:41.315Z,99083.09
2023-05-06T03:26:08.994Z,99086.13
2023-05-06T03:28:36.633Z,99081.22
2023-05-06T03:31:04.251Z,99089.06
2023-05-06T03:33:31.987Z,99086.63
2023-05-06T03:35:59.588Z,99084.06
2023-05-06T03:38:27.248Z,99076.09
2023-05-06T03:40:56.190Z,99083.78
2023-05-06T03:43:23.805Z,99083.84
2023-05-06T03:45:51.609Z,99081.06
2023-05-06T03:48:19.167Z,99083.53
2023-05-06T03:50:46.758Z,99086.19
2023-05-06T03:53:14.356Z,99088.19
2023-05-06T03:55:41.933Z,99088.34
2023-05-06T03:58:11.320Z,99092.63
2023-05-06T04:00:38.946Z,99095.41
2023-05-06T04:03:06.552Z,99098.56
2023-05-06T04:05:34.172Z,99104.56
2023-05-06T04:08:01.750Z,99102.94
2023-05-06T04:10:29.313Z,99101.38
2023-05-06T04:12:56.838Z,99105.50
2023-05-06T04:15:25.771Z,99104.97
2023-05-06T04:17:53.373Z,99106.31
2023-05-06T04:20:20.933Z,99108.78
2023-05-06T04:22:48.543Z,99101.66
2023-05-06T04:25:16.336Z,99118.28
2023-05-06T04:27:43.934Z,99112.63
2023-05-06T04:30:12.533Z,99119.69
2023-05-06T04:32:41.531Z,99116.03
2023-05-06T04:35:10.201Z,99130.56
2023-05-06T04:37:38.078Z,99125.06
2023-05-06T04:40:06.913Z,99117.84
2023-05-06T04:42:34.626Z,99119.44
2023-05-06T04:45:02.279Z,99126.34
2023-05-06T04:47:29.977Z,99133.03
2023-05-06T04:49:58.906Z,99129.59
2023-05-06T04:52:26.695Z,99127.44
2023-05-06T04:54:54.282Z,99137.16
2023-05-06T04:57:21.894Z,99133.66
2023-05-06T04:59:49.474Z,99136.91
2023-05-06T05:02:17.161Z,99136.59
2023-05-06T05:04:44.772Z,99146.47
2023-05-06T05:07:13.776Z,99136.19
2023-05-06T05:09:42.240Z,99138.88
2023-05-06T05:12:09.878Z,99131.88
2023-05-06T05:14:37.647Z,99147.50
2023-05-06T05:17:05.615Z,99145.38
2023-05-06T05:19:33.259Z,99149.50
2023-05-06T05:22:00.827Z,99146.00
2023-05-06T05:24:29.795Z,99147.28
2023-05-06T05:26:57.352Z,99146.56
2023-05-06T05:29:24.920Z,99155.34
2023-05-06T05:31:52.517Z,99141.34
2023-05-06T05:34:20.090Z,99137.50
2023-05-06T05:36:47.685Z,99143.75
2023-05-06T05:39:15.259Z,99148.28
2023-05-06T05:41:44.172Z,99143.84
2023-05-06T05:44:11.830Z,99150.34
2023-05-06T05:46:39.499Z,99150.16
2023-05-06T05:49:07.489Z,99145.63
2023-05-06T05:51:35.279Z,99138.31
2023-05-06T05:54:02.885Z,99140.09
2023-05-06T05:56:30.403Z,99141.81
2023-05-06T05:58:59.379Z,99144.81
2023-05-06T06:01:26.970Z,99145.50
2023-05-06T06:03:55.976Z,99144.72
2023-05-06T06:06:24.305Z,99141.56
2023-05-06T06:08:52.128Z,99141.72
2023-05-06T06:11:19.839Z,99142.56
2023-05-06T06:13:47.446Z,99150.78
2023-05-06T06:16:16.421Z,99143.31
2023-05-06T06:18:44.048Z,99145.97
2023-05-06T06:21:11.657Z,99148.59
2023-05-06T06:23:39.410Z,99145.53
2023-05-06T06:26:07.046Z,99151.69
2023-05-06T06:28:34.637Z,99155.44
2023-05-06T06:31:02.861Z,99158.84
2023-05-06T06:33:31.811Z,99163.69
2023-05-06T06:35:59.564Z,99161.31
2023-05-06T06:38:27.175Z,99167.47
2023-05-06T06:40:54.808Z,99161.63
2023-05-06T06:43:23.804Z,99167.97
2023-05-06T06:45:51.595Z,99168.59
2023-05-06T06:48:20.282Z,99171.44
2023-05-06T06:50:49.308Z,99170.88
2023-05-06T06:53:16.866Z,99166.72
2023-05-06T06:55:44.757Z,99167.59
2023-05-06T06:58:12.366Z,99164.63
2023-05-06T07:00:39.989Z,99171.66
2023-05-06T07:03:07.660Z,99175.16
2023-05-06T07:05:35.642Z,99174.13
2023-05-06T07:08:04.678Z,99173.44
2023-05-06T07:10:32.285Z,99178.34
2023-05-06T07:12:59.923Z,99172.84
2023-05-06T07:15:27.613Z,99174.53
2023-05-06T07:17:55.240Z,99175.72
2023-05-06T07:20:22.853Z,99183.59
2023-05-06T07:22:50.452Z,99180.22
2023-05-06T07:25:19.543Z,99183.69
2023-05-06T07:27:47.096Z,99181.28
2023-05-06T07:30:14.972Z,99181.13
2023-05-06T07:32:43.392Z,99184.75
2023-05-06T07:35:11.212Z,99191.28
2023-05-06T07:37:38.975Z,99183.78
2023-05-06T07:40:07.994Z,99191.75
2023-05-06T07:42:36.918Z,99196.22
2023-05-06T07:45:05.183Z,99193.69
2023-05-06T07:47:33.554Z,99197.53
2023-05-06T07:50:01.262Z,99193.47
2023-05-06T07:52:28.897Z,99199.38
2023-05-06T07:54:56.575Z,99201.53
2023-05-06T07:57:24.129Z,99194.47
2023-05-06T07:59:53.836Z,99198.53
2023-05-06T08:02:21.411Z,99195.22
2023-05-06T08:04:50.947Z,99204.91
2023-05-06T08:07:19.363Z,99200.34
2023-05-06T08:09:46.945Z,99208.06
2023-05-06T08:12:15.728Z,99199.78
2023-05-06T08:14:43.288Z,99205.19
2023-05-06T08:17:12.169Z,99203.25
2023-05-06T08:19:39.757Z,99197.69
2023-05-06T08:22:07.252Z,99203.97
2023-05-06T08:24:34.882Z,99200.19
2023-05-06T08:27:04.204Z,99211.88
2023-05-06T08:29:31.776Z,99202.00
2023-05-06T08:31:59.408Z,99206.94
2023-05-06T08:34:28.415Z,99204.88
2023-05-06T08:36:56.738Z,99201.88
2023-05-06T08:39:24.336Z,99205.91
2023-05-06T08:41:53.600Z,99201.59
2023-05-06T08:44:24.529Z,99206.31
2023-05-06T08:46:52.447Z,99196.50
2023-05-06T08:49:20.158Z,99197.13
2023-05-06T08:51:52.288Z,99197.75
2023-05-06T08:54:20.030Z,99202.63
2023-05-06T08:56:50.048Z,99199.59
2023-05-06T08:59:17.936Z,99199.38
2023-05-06T09:01:45.618Z,99196.53
2023-05-06T09:04:13.822Z,99188.28
2023-05-06T09:06:41.819Z,99193.16
2023-05-06T09:09:11.427Z,99189.50
2023-05-06T09:11:39.592Z,99183.66
2023-05-06T09:14:12.202Z,99187.22
2023-05-06T09:16:40.365Z,99188.06
2023-05-06T09:19:07.971Z,99187.81
2023-05-06T09:21:35.990Z,99187.69
2023-05-06T09:24:04.116Z,99190.59
2023-05-06T09:26:33.993Z,99188.31
2023-05-06T09:29:02.525Z,99187.22
2023-05-06T09:31:30.473Z,99189.13
2023-05-06T09:33:59.214Z,99187.22
2023-05-06T09:36:28.073Z,99179.66
2023-05-06T09:38:56.465Z,99176.66
2023-05-06T09:41:25.689Z,99178.91
2023-05-06T09:43:55.710Z,99177.34
2023-05-06T09:46:24.483Z,99168.19
2023-05-06T09:48:53.184Z,99180.53
2023-05-06T09:51:21.174Z,99175.97
2023-05-06T09:53:48.943Z,99175.31
2023-05-06T09:56:17.035Z,99177.19
2023-05-06T09:58:44.652Z,99166.78
2023-05-06T10:01:19.197Z,99176.47
2023-05-06T10:03:54.508Z,99161.84
2023-05-06T10:06:24.153Z,99160.19
2023-05-06T10:08:52.095Z,99159.09
2023-05-06T10:11:20.644Z,99159.56
2023-05-06T10:13:48.719Z,99156.06
2023-05-06T10:16:18.490Z,99149.75
2023-05-06T10:18:46.745Z,99146.59
2023-05-06T10:21:18.237Z,99151.41
2023-05-06T10:23:52.023Z,99156.03
2023-05-06T10:26:21.726Z,99146.69
2023-05-06T10:28:52.675Z,99133.28
2023-05-06T10:31:21.722Z,99130.59
2023-05-06T10:33:51.803Z,99128.84
2023-05-06T10:36:21.334Z,99127.84
2023-05-06T10:38:52.341Z,99123.44
2023-05-06T10:41:22.132Z,99125.59
2023-05-06T10:43:56.436Z,99127.41
2023-05-06T10:46:26.146Z,99124.88
2023-05-06T10:49:19.962Z,99121.06
2023-05-06T10:51:48.685Z,99125.75
2023-05-06T10:54:25.701Z,99122.91
2023-05-06T10:57:09.679Z,99117.53
2023-05-06T10:59:37.275Z,99113.25
2023-05-06T11:02:12.265Z,99112.38
2023-05-06T11:04:40.250Z,99106.00
2023-05-06T11:07:09.957Z,99113.44
2023-05-06T11:09:55.719Z,99111.66
2023-05-06T11:12:23.507Z,99103.66
2023-05-06T11:14:51.250Z,99101.13
2023-05-06T11:17:33.825Z,99098.34
2023-05-06T11:20:19.367Z,99102.38
2023-05-06T11:22:46.950Z,99103.53
2023-05-06T11:25:14.580Z,99095.06
2023-05-06T11:27:42.384Z,99101.81
2023-05-06T11:30:15.053Z,99094.91
2023-05-06T11:32:44.699Z,99099.13
2023-05-06T11:35:12.951Z,99100.47
2023-05-06T11:37:43.507Z,99101.41
2023-05-06T11:40:19.872Z,99103.75
2023-05-06T11:42:47.424Z,99098.69
2023-05-06T11:45:15.036Z,99103.66
2023-05-06T11:47:45.937Z,99100.91
2023-05-06T11:50:13.587Z,99099.91
2023-05-06T11:52:41.260Z,99100.41
2023-05-06T11:55:10.837Z,99094.19
2023-05-06T11:57:44.635Z,99092.31
2023-05-06T12:00:13.293Z,99090.56
2023-05-06T12:02:42.119Z,99093.41
2023-05-06T12:05:12.192Z,99091.03
2023-05-06T12:07:42.966Z,99087.53
2023-05-06T12:10:11.090Z,99084.28
2023-05-06T12:12:39.143Z,99085.78
2023-05-06T12:15:08.106Z,99079.28
2023-05-06T12:17:35.807Z,99091.47
2023-05-06T12:20:04.060Z,99091.53
2023-05-06T12:22:33.363Z,99088.78
2023-05-06T12:25:14.006Z,99085.06
2023-05-06T12:27:42.116Z,99079.59
2023-05-06T12:30:11.331Z,99086.44
2023-05-06T12:32:57.462Z,99084.94
2023-05-06T12:35:29.222Z,99080.00
2023-05-06T12:37:59.094Z,99081.06
2023-05-06T12:40:26.704Z,99084.75
2023-05-06T12:42:55.180Z,99078.00
2023-05-06T12:45:23.718Z,99080.44
2023-05-06T12:47:55.065Z,99079.19
2023-05-06T12:50:33.141Z,99083.75
2023-05-06T12:53:02.379Z,99081.47
2023-05-06T12:55:32.104Z,99072.03
2023-05-06T12:57:59.751Z,99081.78
2023-05-06T13:00:27.663Z,99079.53
2023-05-06T13:02:55.597Z,99084.34
2023-05-06T13:05:23.953Z,99077.97
2023-05-06T13:07:53.142Z,99083.03
2023-05-06T13:10:22.466Z,99080.09
2023-05-06T13:12:50.545Z,99087.72
2023-05-06T13:15:18.326Z,99088.75
2023-05-06T13:17:46.331Z,99093.84
2023-05-06T13:20:14.302Z,99088.53
2023-05-06T13:22:53.723Z,99087.63
2023-05-06T13:25:23.924Z,99082.75
2023-05-06T13:27:51.738Z,99075.38
2023-05-06T13:30:19.651Z,99073.47
2023-05-06T13:32:48.691Z,99076.47
2023-05-06T13:35:16.433Z,99074.63
2023-05-06T13:37:44.077Z,99073.28
2023-05-06T13:40:13.161Z,99063.88
2023-05-06T13:42:42.495Z,99060.50
2023-05-06T13:45:11.344Z,99058.03
2023-05-06T13:47:39.144Z,99059.16
2023-05-06T13:50:08.404Z,99049.22
2023-05-06T13:52:36.082Z,99052.25
2023-05-06T13:55:03.765Z,99045.47
2023-05-06T13:57:31.481Z,99047.19
2023-05-06T14:00:00.719Z,99045.63
2023-05-06T14:02:28.486Z,99040.81
2023-05-06T14:04:56.105Z,99041.09
2023-05-06T14:07:23.707Z,99041.53
2023-05-06T14:09:51.247Z,99042.22
2023-05-06T14:12:18.776Z,99032.34
2023-05-06T14:14:46.360Z,99041.09
2023-05-06T14:17:15.284Z,99041.94
2023-05-06T14:19:42.852Z,99033.75
2023-05-06T14:22:10.417Z,99030.78
2023-05-06T14:24:37.964Z,99024.00
2023-05-06T14:27:05.586Z,99025.28
2023-05-06T14:29:33.432Z,99022.44
2023-05-06T14:32:01.145Z,99024.44
2023-05-06T14:34:30.053Z,99021.03
2023-05-06T14:36:57.586Z,99027.25
2023-05-06T14:39:25.192Z,99019.06
2023-05-06T14:41:52.815Z,99021.59
2023-05-06T14:44:20.560Z,99023.72
2023-05-06T14:46:48.253Z,99022.47
2023-05-06T14:49:16.381Z,99017.38
2023-05-06T14:51:45.824Z,99019.19
2023-05-06T14:54:13.560Z,99011.88
2023-05-06T14:56:41.289Z,99009.16
2023-05-06T14:59:09.106Z,99010.44
2023-05-06T15:01:36.677Z,99007.06
2023-05-06T15:04:04.500Z,99013.97
2023-05-06T15:06:32.647Z,99013.25
2023-05-06T15:09:02.999Z,99012.84
2023-05-06T15:11:30.757Z,99001.66
2023-05-06T15:13:58.472Z,99003.38
2023-05-06T15:16:26.624Z,99005.22
2023-05-06T15:18:54.513Z,99003.97
2023-05-06T15:21:22.303Z,99000.66
2023-05-06T15:23:50.835Z,98999.25
2023-05-06T15:26:20.019Z,99001.84
2023-05-06T15:28:47.848Z,99004.31
2023-05-06T15:31:15.664Z,99002.81
2023-05-06T15:33:43.536Z,98995.44
2023-05-06T15:36:12.077Z,99004.91
2023-05-06T15:38:58.367Z,99002.91
2023-05-06T15:41:30.374Z,99001.66
2023-05-06T15:43:59.474Z,99003.34
2023-05-06T15:46:27.443Z,99011.78
2023-05-06T15:49:15.644Z,99011.63
2023-05-06T15:51:43.737Z,99018.00
2023-05-06T15:54:11.571Z,99010.22
2023-05-06T15:56:41.607Z,99010.09
2023-05-06T15:59:09.617Z,99018.69
2023-05-06T16:02:16.540Z,99002.03
2023-05-06T16:04:25.634Z,99008.00
2023-05-06T16:06:53.381Z,99007.94
2023-05-06T16:09:20.974Z,99006.13
2023-05-06T16:11:50.037Z,99003.03
2023-05-06T16:14:17.582Z,99007.00
2023-05-06T16:16:45.351Z,99001.31
2023-05-06T16:19:13.061Z,99000.34
2023-05-06T16:21:40.892Z,98998.50
2023-05-06T16:24:08.691Z,98996.38
2023-05-06T16:26:36.501Z,99002.69
2023-05-06T16:29:05.390Z,98995.22
2023-05-06T16:31:33.549Z,99001.38
2023-05-06T16:34:01.310Z,99001.09
2023-05-06T16:36:29.269Z,98997.16
2023-05-06T16:38:56.848Z,98991.63
2023-05-06T16:41:24.510Z,98999.09
2023-05-06T16:43:52.201Z,98989.25
2023-05-06T16:46:23.965Z,98991.44
2023-05-06T16:48:52.299Z,98988.38
2023-05-06T16:51:19.966Z,98993.69
2023-05-06T16:53:47.814Z,98989.59
2023-05-06T16:56:15.616Z,98994.28
2023-05-06T16:58:43.389Z,98991.94
2023-05-06T17:01:11.717Z,98989.81
2023-05-06T17:03:40.863Z,98992.00
2023-05-06T17:06:08.749Z,98992.72
2023-05-06T17:08:37.223Z,98985.41
2023-05-06T17:11:06.998Z,98990.19
2023-05-06T17:13:34.573Z,98996.47
2023-05-06T17:16:02.217Z,98989.34
2023-05-06T17:18:29.837Z,98991.28
2023-05-06T17:20:59.068Z,98984.97
2023-05-06T17:23:27.030Z,98988.63
2023-05-06T17:25:56.680Z,98980.00
2023-05-06T17:28:24.900Z,98981.50
2023-05-06T17:30:52.590Z,98982.81
2023-05-06T17:33:20.265Z,98978.97
2023-05-06T17:35:47.871Z,98978.75
2023-05-06T17:38:17.430Z,98987.50
2023-05-06T17:40:44.980Z,98979.75
2023-05-06T17:43:12.639Z,98974.22
2023-05-06T17:45:41.384Z,98976.44
2023-05-06T17:48:09.029Z,98974.13
2023-05-06T17:50:36.658Z,98976.47
2023-05-06T17:53:04.334Z,98979.72
2023-05-06T17:55:33.342Z,98978.81
2023-05-06T17:58:00.978Z,98973.19
2023-05-06T18:00:28.661Z,98980.22
2023-05-06T18:02:56.369Z,98976.00
2023-05-06T18:05:25.540Z,98985.34
2023-05-06T18:07:53.377Z,98981.38
2023-05-06T18:10:21.042Z,98987.47
2023-05-06T18:12:50.306Z,98985.88
2023-05-06T18:15:18.334Z,98982.56
2023-05-06T18:17:46.372Z,98984.16
2023-05-06T18:20:14.609Z,98982.44
2023-05-06T18:22:42.867Z,98993.50
2023-05-06T18:25:11.308Z,98993.13
2023-05-06T18:27:39.368Z,98991.91
2023-05-06T18:30:09.397Z,98999.09
2023-05-06T18:32:37.397Z,98987.88
2023-05-06T18:35:05.678Z,98995.31
2023-05-06T18:37:33.671Z,98997.47
2023-05-06T18:40:01.424Z,98995.78
2023-05-06T18:42:29.137Z,98998.22
2023-05-06T18:44:57.545Z,98991.19
2023-05-06T18:47:26.926Z,98989.84
2023-05-06T18:49:54.746Z,98990.22
2023-05-06T18:52:23.064Z,98996.03
2023-05-06T18:54:50.923Z,98991.06
2023-05-06T18:57:19.529Z,98990.69
2023-05-06T18:59:47.557Z,98991.78
2023-05-06T19:02:15.613Z,98995.44
2023-05-06T19:04:44.937Z,98989.38
2023-05-06T19:07:14.334Z,98994.22
2023-05-06T19:09:43.560Z,98998.56
2023-05-06T19:12:11.547Z,98999.41
2023-05-06T19:14:39.460Z,98999.78
2023-05-06T19:17:07.283Z,99003.88
2023-05-06T19:19:35.017Z,99001.72
2023-05-06T19:22:04.354Z,99007.03
2023-05-06T19:24:32.276Z,99007.72
2023-05-06T19:27:00.123Z,99002.41
2023-05-06T19:29:28.339Z,99014.03
2023-05-06T19:31:56.081Z,99006.88
2023-05-06T19:34:23.996Z,99001.47
2023-05-06T19:36:51.803Z,99010.69
2023-05-06T19:39:21.384Z,99008.47
2023-05-06T19:41:49.374Z,99009.47
2023-05-06T19:44:17.257Z,99008.25
2023-05-06T19:46:45.061Z,99008.19
2023-05-06T19:49:12.912Z,99004.75
2023-05-06T19:51:40.714Z,99006.78
2023-05-06T19:54:08.402Z,99007.88
2023-05-06T19:56:37.433Z,99009.28
2023-05-06T19:59:05.814Z,99011.28
2023-05-06T20:01:33.624Z,99016.22
2023-05-06T20:04:01.443Z,99010.88
2023-05-06T20:06:31.161Z,99014.84
2023-05-06T20:08:58.971Z,99025.63
2023-05-06T20:11:26.793Z,99025.97
2023-05-06T20:13:55.900Z,99022.84
2023-05-06T20:16:23.897Z,99024.38
2023-05-06T20:18:52.051Z,99021.03
2023-05-06T20:21:19.958Z,99025.91
2023-05-06T20:23:47.567Z,99022.19
2023-05-06T20:26:15.245Z,99024.22
2023-05-06T20:28:42.822Z,99028.59
2023-05-06T20:31:11.861Z,99025.16
2023-05-06T20:33:39.496Z,99024.63
2023-05-06T20:36:07.570Z,99022.09
2023-05-06T20:38:35.125Z,99017.66
2023-05-06T20:41:03.004Z,99029.50
2023-05-06T20:43:30.645Z,99030.22
2023-05-06T20:45:58.351Z,99025.97
2023-05-06T20:48:27.722Z,99027.56
2023-05-06T20:50:57.013Z,99024.34
2023-05-06T20:53:24.642Z,99023.84
2023-05-06T20:55:52.722Z,99029.28
2023-05-06T20:58:20.758Z,99020.66
2023-05-06T21:00:49.879Z,99025.69
2023-05-06T21:03:17.690Z,99029.72
2023-05-06T21:05:46.732Z,99025.34
2023-05-06T21:08:14.407Z,99025.34
2023-05-06T21:10:41.954Z,99031.00
2023-05-06T21:13:09.560Z,99024.81
2023-05-06T21:15:37.713Z,99021.53
2023-05-06T21:18:05.447Z,99021.81
2023-05-06T21:20:33.077Z,99027.69
2023-05-06T21:23:03.376Z,99024.38
2023-05-06T21:25:30.984Z,99023.41
2023-05-06T21:28:03.160Z,99035.25
2023-05-06T21:30:30.761Z,99029.19
2023-05-06T21:32:58.359Z,99029.19
2023-05-06T21:35:26.034Z,99033.88
2023-05-06T21:37:53.738Z,99024.25
2023-05-06T21:40:22.802Z,99020.44
2023-05-06T21:42:50.731Z,99026.63
2023-05-06T21:45:18.520Z,99029.19
2023-05-06T21:47:46.525Z,99026.97
2023-05-06T21:50:14.283Z,99012.06
2023-05-06T21:52:42.156Z,99027.28
2023-05-06T21:55:10.332Z,99026.13
2023-05-06T21:57:39.418Z,99023.34
2023-05-06T22:00:11.797Z,99026.44
2023-05-06T22:02:40.019Z,99012.28
2023-05-06T22:05:08.801Z,99024.84
2023-05-06T22:07:36.747Z,99013.66
2023-05-06T22:10:04.790Z,99024.63
2023-05-06T22:12:32.422Z,99024.31
2023-05-06T22:15:01.394Z,99028.25
2023-05-06T22:17:29.043Z,99023.88
2023-05-06T22:19:56.720Z,99035.38
2023-05-06T22:22:25.190Z,99031.13
2023-05-06T22:24:52.949Z,99024.22
2023-05-06T22:27:20.602Z,99024.63
2023-05-06T22:29:48.218Z,99020.38
2023-05-06T22:32:17.237Z,99025.38
2023-05-06T22:34:44.838Z,99028.03
2023-05-06T22:37:12.445Z,99033.44
2023-05-06T22:39:40.108Z,99022.28
2023-05-06T22:42:07.782Z,99029.09
2023-05-06T22:44:35.337Z,99028.31
2023-05-06T22:47:03.069Z,99027.91
2023-05-06T22:49:32.763Z,99031.84
2023-05-06T22:52:00.428Z,99022.06
2023-05-06T22:54:28.065Z,99026.19
2023-05-06T22:56:55.821Z,99023.53
2023-05-06T22:59:23.720Z,99020.19
2023-05-06T23:01:51.485Z,99024.66
2023-05-06T23:04:19.668Z,99027.94
2023-05-06T23:06:49.584Z,99022.81
2023-05-06T23:09:17.405Z,99016.41
2023-05-06T23:11:46.901Z,99012.78
2023-05-06T23:14:14.581Z,99025.09
2023-05-06T23:16:46.285Z,99026.25
2023-05-06T23:19:14.284Z,99025.41
2023-05-06T23:21:43.738Z,99027.50
2023-05-06T23:24:13.000Z,99024.22
2023-05-06T23:26:40.641Z,99020.34
2023-05-06T23:29:08.280Z,99027.16
2023-05-06T23:31:35.862Z,99026.75
2023-05-06T23:34:04.047Z,99023.56
2023-05-06T23:36:31.642Z,99028.13
2023-05-06T23:38:59.575Z,99030.78
2023-05-06T23:41:28.615Z,99031.72
2023-05-06T23:43:56.521Z,99032.03
2023-05-06T23:46:24.167Z,99026.41
2023-05-06T23:48:51.765Z,99033.19
2023-05-06T23:51:19.405Z,99020.41
2023-05-06T23:53:47.541Z,99032.31
2023-05-06T23:56:15.154Z,99021.81
2023-05-06T23:58:44.076Z,99002.50
